sensor_id;sensor_type;location;lat;lon;timestamp;P1;P2;P0
54553;PMS5003;40450;55.848;-3.572;2023-08-06T00:00:59;7;7;
54553;PMS5003;40450;55.848;-3.572;2023-08-06T00:03:29;10;8;
54553;PMS5003;40450;55.848;-3.572;2023-08-06T00:05:59;7;5;
54553;PMS5003;40450;55.848;-3.572;2023-08-06T00:08:30;3;3;
54553;PMS5003;40450;55.848;-3.572;2023-08-06T00:11:00;6;5;
54553;PMS5003;40450;55.848;-3.572;2023-08-06T00:13:31;5;5;
54553;PMS5003;40450;55.848;-3.572;2023-08-06T00:18:30;4;4;
54553;PMS5003;40450;55.848;-3.572;2023-08-06T00:21:01;4;4;
54553;PMS5003;40450;55.848;-3.572;2023-08-06T00:23:31;4;4;
54553;PMS5003;40450;55.848;-3.572;2023-08-06T00:26:01;6;3;
54553;PMS5003;40450;55.848;-3.572;2023-08-06T00:28:32;4;4;
54553;PMS5003;40450;55.848;-3.572;2023-08-06T00:31:02;4;4;
54553;PMS5003;40450;55.848;-3.572;2023-08-06T00:33:32;6;4;
54553;PMS5003;40450;55.848;-3.572;2023-08-06T00:36:03;4;4;
54553;PMS5003;40450;55.848;-3.572;2023-08-06T00:38:33;3;3;
54553;PMS5003;40450;55.848;-3.572;2023-08-06T00:41:03;7;7;
54553;PMS5003;40450;55.848;-3.572;2023-08-06T00:43:34;4;4;
54553;PMS5003;40450;55.848;-3.572;2023-08-06T00:46:04;7;5;
54553;PMS5003;40450;55.848;-3.572;2023-08-06T00:48:34;4;3;
54553;PMS5003;40450;55.848;-3.572;2023-08-06T00:51:05;5;5;
54553;PMS5003;40450;55.848;-3.572;2023-08-06T00:53:35;3;3;
54553;PMS5003;40450;55.848;-3.572;2023-08-06T00:56:05;7;6;
54553;PMS5003;40450;55.848;-3.572;2023-08-06T00:58:36;3;3;
54553;PMS5003;40450;55.848;-3.572;2023-08-06T01:01:07;4;3;
54553;PMS5003;40450;55.848;-3.572;2023-08-06T01:03:37;5;4;
54553;PMS5003;40450;55.848;-3.572;2023-08-06T01:06:07;3;3;
54553;PMS5003;40450;55.848;-3.572;2023-08-06T01:08:40;5;5;
54553;PMS5003;40450;55.848;-3.572;2023-08-06T01:11:13;3;3;
54553;PMS5003;40450;55.848;-3.572;2023-08-06T01:13:41;5;4;
54553;PMS5003;40450;55.848;-3.572;2023-08-06T01:16:09;3;3;
54553;PMS5003;40450;55.848;-3.572;2023-08-06T01:18:39;7;6;
54553;PMS5003;40450;55.848;-3.572;2023-08-06T01:21:10;4;4;
54553;PMS5003;40450;55.848;-3.572;2023-08-06T01:23:41;6;5;
54553;PMS5003;40450;55.848;-3.572;2023-08-06T01:26:12;7;6;
54553;PMS5003;40450;55.848;-3.572;2023-08-06T01:28:44;6;6;
54553;PMS5003;40450;55.848;-3.572;2023-08-06T01:31:14;6;6;
54553;PMS5003;40450;55.848;-3.572;2023-08-06T01:33:43;6;6;
54553;PMS5003;40450;55.848;-3.572;2023-08-06T01:36:13;6;6;
54553;PMS5003;40450;55.848;-3.572;2023-08-06T01:38:43;5;5;
54553;PMS5003;40450;55.848;-3.572;2023-08-06T01:41:13;8;5;
54553;PMS5003;40450;55.848;-3.572;2023-08-06T01:43:43;7;5;
54553;PMS5003;40450;55.848;-3.572;2023-08-06T01:46:14;7;7;
54553;PMS5003;40450;55.848;-3.572;2023-08-06T01:48:44;8;8;
54553;PMS5003;40450;55.848;-3.572;2023-08-06T01:51:14;5;4;
54553;PMS5003;40450;55.848;-3.572;2023-08-06T01:53:45;8;6;
54553;PMS5003;40450;55.848;-3.572;2023-08-06T01:56:15;8;8;
54553;PMS5003;40450;55.848;-3.572;2023-08-06T01:58:45;8;7;
54553;PMS5003;40450;55.848;-3.572;2023-08-06T02:03:46;5;5;
54553;PMS5003;40450;55.848;-3.572;2023-08-06T02:06:17;8;7;
54553;PMS5003;40450;55.848;-3.572;2023-08-06T02:08:47;7;7;
54553;PMS5003;40450;55.848;-3.572;2023-08-06T02:11:18;5;5;
54553;PMS5003;40450;55.848;-3.572;2023-08-06T02:13:48;6;6;
54553;PMS5003;40450;55.848;-3.572;2023-08-06T02:16:18;9;7;
54553;PMS5003;40450;55.848;-3.572;2023-08-06T02:18:49;8;6;
54553;PMS5003;40450;55.848;-3.572;2023-08-06T02:21:19;7;7;
54553;PMS5003;40450;55.848;-3.572;2023-08-06T02:23:49;11;7;
54553;PMS5003;40450;55.848;-3.572;2023-08-06T02:26:19;8;6;
54553;PMS5003;40450;55.848;-3.572;2023-08-06T02:28:50;6;6;
54553;PMS5003;40450;55.848;-3.572;2023-08-06T02:31:20;6;6;
54553;PMS5003;40450;55.848;-3.572;2023-08-06T02:33:51;6;6;
54553;PMS5003;40450;55.848;-3.572;2023-08-06T02:36:21;7;6;
54553;PMS5003;40450;55.848;-3.572;2023-08-06T02:38:51;4;4;
54553;PMS5003;40450;55.848;-3.572;2023-08-06T02:41:22;5;5;
54553;PMS5003;40450;55.848;-3.572;2023-08-06T02:43:53;5;5;
54553;PMS5003;40450;55.848;-3.572;2023-08-06T02:46:23;6;6;
54553;PMS5003;40450;55.848;-3.572;2023-08-06T02:48:54;5;5;
54553;PMS5003;40450;55.848;-3.572;2023-08-06T02:51:24;5;4;
54553;PMS5003;40450;55.848;-3.572;2023-08-06T02:53:54;6;6;
54553;PMS5003;40450;55.848;-3.572;2023-08-06T02:56:24;6;6;
54553;PMS5003;40450;55.848;-3.572;2023-08-06T02:58:55;5;4;
54553;PMS5003;40450;55.848;-3.572;2023-08-06T03:01:25;7;7;
54553;PMS5003;40450;55.848;-3.572;2023-08-06T03:03:55;7;7;
54553;PMS5003;40450;55.848;-3.572;2023-08-06T03:06:26;11;8;
54553;PMS5003;40450;55.848;-3.572;2023-08-06T03:08:56;5;5;
54553;PMS5003;40450;55.848;-3.572;2023-08-06T03:11:26;6;4;
54553;PMS5003;40450;55.848;-3.572;2023-08-06T03:13:56;7;6;
54553;PMS5003;40450;55.848;-3.572;2023-08-06T03:16:27;4;4;
54553;PMS5003;40450;55.848;-3.572;2023-08-06T03:18:58;3;3;
54553;PMS5003;40450;55.848;-3.572;2023-08-06T03:21:28;7;6;
54553;PMS5003;40450;55.848;-3.572;2023-08-06T03:23:58;6;6;
54553;PMS5003;40450;55.848;-3.572;2023-08-06T03:26:29;5;5;
54553;PMS5003;40450;55.848;-3.572;2023-08-06T03:28:59;7;7;
54553;PMS5003;40450;55.848;-3.572;2023-08-06T03:31:29;6;6;
54553;PMS5003;40450;55.848;-3.572;2023-08-06T03:33:59;4;4;
54553;PMS5003;40450;55.848;-3.572;2023-08-06T03:36:29;4;4;
54553;PMS5003;40450;55.848;-3.572;2023-08-06T03:39:00;6;5;
54553;PMS5003;40450;55.848;-3.572;2023-08-06T03:41:35;7;6;
54553;PMS5003;40450;55.848;-3.572;2023-08-06T03:44:00;5;5;
54553;PMS5003;40450;55.848;-3.572;2023-08-06T03:46:31;5;5;
54553;PMS5003;40450;55.848;-3.572;2023-08-06T03:49:01;6;6;
54553;PMS5003;40450;55.848;-3.572;2023-08-06T03:51:31;5;4;
54553;PMS5003;40450;55.848;-3.572;2023-08-06T03:54:02;5;5;
54553;PMS5003;40450;55.848;-3.572;2023-08-06T03:56:32;4;4;
54553;PMS5003;40450;55.848;-3.572;2023-08-06T03:59:02;5;5;
54553;PMS5003;40450;55.848;-3.572;2023-08-06T04:01:33;9;7;
54553;PMS5003;40450;55.848;-3.572;2023-08-06T04:04:03;3;3;
54553;PMS5003;40450;55.848;-3.572;2023-08-06T04:06:39;8;6;
54553;PMS5003;40450;55.848;-3.572;2023-08-06T04:09:04;6;4;
54553;PMS5003;40450;55.848;-3.572;2023-08-06T04:11:35;5;5;
54553;PMS5003;40450;55.848;-3.572;2023-08-06T04:14:05;5;5;
54553;PMS5003;40450;55.848;-3.572;2023-08-06T04:16:35;8;6;
54553;PMS5003;40450;55.848;-3.572;2023-08-06T04:19:06;9;5;
54553;PMS5003;40450;55.848;-3.572;2023-08-06T04:21:36;7;6;
54553;PMS5003;40450;55.848;-3.572;2023-08-06T04:24:06;6;6;
54553;PMS5003;40450;55.848;-3.572;2023-08-06T04:26:37;8;8;
54553;PMS5003;40450;55.848;-3.572;2023-08-06T04:29:07;6;6;
54553;PMS5003;40450;55.848;-3.572;2023-08-06T04:31:37;6;6;
54553;PMS5003;40450;55.848;-3.572;2023-08-06T04:34:08;8;8;
54553;PMS5003;40450;55.848;-3.572;2023-08-06T04:36:38;10;9;
54553;PMS5003;40450;55.848;-3.572;2023-08-06T04:39:09;11;9;
54553;PMS5003;40450;55.848;-3.572;2023-08-06T04:41:39;12;9;
54553;PMS5003;40450;55.848;-3.572;2023-08-06T04:44:09;14;13;
54553;PMS5003;40450;55.848;-3.572;2023-08-06T04:46:39;9;9;
54553;PMS5003;40450;55.848;-3.572;2023-08-06T04:49:10;14;12;
54553;PMS5003;40450;55.848;-3.572;2023-08-06T04:51:40;15;13;
54553;PMS5003;40450;55.848;-3.572;2023-08-06T04:54:11;16;14;
54553;PMS5003;40450;55.848;-3.572;2023-08-06T04:56:41;12;10;
54553;PMS5003;40450;55.848;-3.572;2023-08-06T04:59:11;12;10;
54553;PMS5003;40450;55.848;-3.572;2023-08-06T05:01:41;13;12;
54553;PMS5003;40450;55.848;-3.572;2023-08-06T05:04:12;8;8;
54553;PMS5003;40450;55.848;-3.572;2023-08-06T05:06:43;13;9;
54553;PMS5003;40450;55.848;-3.572;2023-08-06T05:09:13;14;12;
54553;PMS5003;40450;55.848;-3.572;2023-08-06T05:11:43;9;9;
54553;PMS5003;40450;55.848;-3.572;2023-08-06T05:14:14;16;13;
54553;PMS5003;40450;55.848;-3.572;2023-08-06T05:16:44;11;10;
54553;PMS5003;40450;55.848;-3.572;2023-08-06T05:19:15;15;12;
54553;PMS5003;40450;55.848;-3.572;2023-08-06T05:21:45;8;8;
54553;PMS5003;40450;55.848;-3.572;2023-08-06T05:24:15;10;10;
54553;PMS5003;40450;55.848;-3.572;2023-08-06T05:26:46;15;14;
54553;PMS5003;40450;55.848;-3.572;2023-08-06T05:29:17;15;13;
54553;PMS5003;40450;55.848;-3.572;2023-08-06T05:31:47;12;9;
54553;PMS5003;40450;55.848;-3.572;2023-08-06T05:34:17;13;11;
54553;PMS5003;40450;55.848;-3.572;2023-08-06T05:36:47;15;14;
54553;PMS5003;40450;55.848;-3.572;2023-08-06T05:39:18;16;12;
54553;PMS5003;40450;55.848;-3.572;2023-08-06T05:41:48;16;11;
54553;PMS5003;40450;55.848;-3.572;2023-08-06T05:44:19;18;16;
54553;PMS5003;40450;55.848;-3.572;2023-08-06T05:46:49;12;11;
54553;PMS5003;40450;55.848;-3.572;2023-08-06T05:49:19;12;12;
54553;PMS5003;40450;55.848;-3.572;2023-08-06T05:51:50;13;11;
54553;PMS5003;40450;55.848;-3.572;2023-08-06T05:54:21;15;15;
54553;PMS5003;40450;55.848;-3.572;2023-08-06T05:56:51;17;13;
54553;PMS5003;40450;55.848;-3.572;2023-08-06T05:59:22;12;11;
54553;PMS5003;40450;55.848;-3.572;2023-08-06T06:01:52;13;12;
54553;PMS5003;40450;55.848;-3.572;2023-08-06T06:04:23;12;12;
54553;PMS5003;40450;55.848;-3.572;2023-08-06T06:06:53;17;14;
54553;PMS5003;40450;55.848;-3.572;2023-08-06T06:09:24;9;8;
54553;PMS5003;40450;55.848;-3.572;2023-08-06T06:11:53;12;9;
54553;PMS5003;40450;55.848;-3.572;2023-08-06T06:14:23;11;10;
54553;PMS5003;40450;55.848;-3.572;2023-08-06T06:16:54;9;9;
54553;PMS5003;40450;55.848;-3.572;2023-08-06T06:19:25;15;9;
54553;PMS5003;40450;55.848;-3.572;2023-08-06T06:21:55;12;10;
54553;PMS5003;40450;55.848;-3.572;2023-08-06T06:24:25;9;9;
54553;PMS5003;40450;55.848;-3.572;2023-08-06T06:26:55;9;7;
54553;PMS5003;40450;55.848;-3.572;2023-08-06T06:29:26;15;11;
54553;PMS5003;40450;55.848;-3.572;2023-08-06T06:31:56;11;10;
54553;PMS5003;40450;55.848;-3.572;2023-08-06T06:34:26;9;9;
54553;PMS5003;40450;55.848;-3.572;2023-08-06T06:36:57;7;7;
54553;PMS5003;40450;55.848;-3.572;2023-08-06T06:39:27;6;6;
54553;PMS5003;40450;55.848;-3.572;2023-08-06T06:41:57;12;10;
54553;PMS5003;40450;55.848;-3.572;2023-08-06T06:44:28;7;6;
54553;PMS5003;40450;55.848;-3.572;2023-08-06T06:46:58;7;7;
54553;PMS5003;40450;55.848;-3.572;2023-08-06T06:49:28;10;10;
54553;PMS5003;40450;55.848;-3.572;2023-08-06T06:51:58;10;8;
54553;PMS5003;40450;55.848;-3.572;2023-08-06T06:54:29;9;9;
54553;PMS5003;40450;55.848;-3.572;2023-08-06T06:56:59;14;14;
54553;PMS5003;40450;55.848;-3.572;2023-08-06T06:59:29;9;8;
54553;PMS5003;40450;55.848;-3.572;2023-08-06T07:01:59;10;7;
54553;PMS5003;40450;55.848;-3.572;2023-08-06T07:04:29;11;9;
54553;PMS5003;40450;55.848;-3.572;2023-08-06T07:07:00;8;8;
54553;PMS5003;40450;55.848;-3.572;2023-08-06T07:09:30;9;9;
54553;PMS5003;40450;55.848;-3.572;2023-08-06T07:12:00;9;6;
54553;PMS5003;40450;55.848;-3.572;2023-08-06T07:14:31;10;8;
54553;PMS5003;40450;55.848;-3.572;2023-08-06T07:17:01;8;8;
54553;PMS5003;40450;55.848;-3.572;2023-08-06T07:19:32;12;9;
54553;PMS5003;40450;55.848;-3.572;2023-08-06T07:22:02;9;6;
54553;PMS5003;40450;55.848;-3.572;2023-08-06T07:24:33;9;9;
54553;PMS5003;40450;55.848;-3.572;2023-08-06T07:27:03;8;8;
54553;PMS5003;40450;55.848;-3.572;2023-08-06T07:29:33;8;8;
54553;PMS5003;40450;55.848;-3.572;2023-08-06T07:32:05;12;10;
54553;PMS5003;40450;55.848;-3.572;2023-08-06T07:34:34;7;7;
54553;PMS5003;40450;55.848;-3.572;2023-08-06T07:37:05;11;11;
54553;PMS5003;40450;55.848;-3.572;2023-08-06T07:39:36;5;5;
54553;PMS5003;40450;55.848;-3.572;2023-08-06T07:42:07;7;7;
54553;PMS5003;40450;55.848;-3.572;2023-08-06T07:44:37;6;6;
54553;PMS5003;40450;55.848;-3.572;2023-08-06T07:47:08;8;7;
54553;PMS5003;40450;55.848;-3.572;2023-08-06T07:49:38;6;6;
54553;PMS5003;40450;55.848;-3.572;2023-08-06T07:52:09;7;6;
54553;PMS5003;40450;55.848;-3.572;2023-08-06T07:54:39;8;6;
54553;PMS5003;40450;55.848;-3.572;2023-08-06T07:57:09;7;6;
54553;PMS5003;40450;55.848;-3.572;2023-08-06T07:59:39;6;6;
54553;PMS5003;40450;55.848;-3.572;2023-08-06T08:02:10;6;6;
54553;PMS5003;40450;55.848;-3.572;2023-08-06T08:04:40;5;5;
54553;PMS5003;40450;55.848;-3.572;2023-08-06T08:07:11;10;6;
54553;PMS5003;40450;55.848;-3.572;2023-08-06T08:09:41;6;6;
54553;PMS5003;40450;55.848;-3.572;2023-08-06T08:12:12;9;6;
54553;PMS5003;40450;55.848;-3.572;2023-08-06T08:14:42;3;3;
54553;PMS5003;40450;55.848;-3.572;2023-08-06T08:17:12;5;5;
54553;PMS5003;40450;55.848;-3.572;2023-08-06T08:24:43;4;4;
54553;PMS5003;40450;55.848;-3.572;2023-08-06T08:27:13;5;5;
54553;PMS5003;40450;55.848;-3.572;2023-08-06T08:29:43;9;6;
54553;PMS5003;40450;55.848;-3.572;2023-08-06T08:32:14;4;3;
54553;PMS5003;40450;55.848;-3.572;2023-08-06T08:34:44;4;4;
54553;PMS5003;40450;55.848;-3.572;2023-08-06T08:37:14;7;5;
54553;PMS5003;40450;55.848;-3.572;2023-08-06T08:39:45;4;4;
54553;PMS5003;40450;55.848;-3.572;2023-08-06T08:42:15;5;5;
54553;PMS5003;40450;55.848;-3.572;2023-08-06T08:44:45;4;4;
54553;PMS5003;40450;55.848;-3.572;2023-08-06T08:47:16;3;3;
54553;PMS5003;40450;55.848;-3.572;2023-08-06T08:49:46;3;3;
54553;PMS5003;40450;55.848;-3.572;2023-08-06T08:52:17;3;3;
54553;PMS5003;40450;55.848;-3.572;2023-08-06T08:54:47;3;3;
54553;PMS5003;40450;55.848;-3.572;2023-08-06T08:57:18;3;3;
54553;PMS5003;40450;55.848;-3.572;2023-08-06T08:59:48;5;2;
54553;PMS5003;40450;55.848;-3.572;2023-08-06T09:02:18;2;2;
54553;PMS5003;40450;55.848;-3.572;2023-08-06T09:04:49;3;2;
54553;PMS5003;40450;55.848;-3.572;2023-08-06T09:07:19;4;3;
54553;PMS5003;40450;55.848;-3.572;2023-08-06T09:09:49;1;1;
54553;PMS5003;40450;55.848;-3.572;2023-08-06T09:12:20;4;1;
54553;PMS5003;40450;55.848;-3.572;2023-08-06T09:14:50;2;1;
54553;PMS5003;40450;55.848;-3.572;2023-08-06T09:17:20;4;2;
54553;PMS5003;40450;55.848;-3.572;2023-08-06T09:19:51;1;1;
54553;PMS5003;40450;55.848;-3.572;2023-08-06T09:22:21;3;3;
54553;PMS5003;40450;55.848;-3.572;2023-08-06T09:24:51;0;0;
54553;PMS5003;40450;55.848;-3.572;2023-08-06T09:27:22;1;1;
54553;PMS5003;40450;55.848;-3.572;2023-08-06T09:29:52;6;3;
54553;PMS5003;40450;55.848;-3.572;2023-08-06T09:32:22;5;3;
54553;PMS5003;40450;55.848;-3.572;2023-08-06T09:34:55;2;2;
54553;PMS5003;40450;55.848;-3.572;2023-08-06T09:37:23;5;2;
54553;PMS5003;40450;55.848;-3.572;2023-08-06T09:39:53;3;2;
54553;PMS5003;40450;55.848;-3.572;2023-08-06T09:42:23;2;2;
54553;PMS5003;40450;55.848;-3.572;2023-08-06T09:44:54;2;2;
54553;PMS5003;40450;55.848;-3.572;2023-08-06T09:47:24;1;1;
54553;PMS5003;40450;55.848;-3.572;2023-08-06T09:49:54;4;4;
54553;PMS5003;40450;55.848;-3.572;2023-08-06T09:52:25;3;2;
54553;PMS5003;40450;55.848;-3.572;2023-08-06T09:54:55;2;2;
54553;PMS5003;40450;55.848;-3.572;2023-08-06T09:57:25;2;1;
54553;PMS5003;40450;55.848;-3.572;2023-08-06T09:59:56;3;2;
54553;PMS5003;40450;55.848;-3.572;2023-08-06T10:02:26;0;0;
54553;PMS5003;40450;55.848;-3.572;2023-08-06T10:04:56;3;2;
54553;PMS5003;40450;55.848;-3.572;2023-08-06T10:07:26;1;1;
54553;PMS5003;40450;55.848;-3.572;2023-08-06T10:09:58;2;1;
54553;PMS5003;40450;55.848;-3.572;2023-08-06T10:12:28;4;2;
54553;PMS5003;40450;55.848;-3.572;2023-08-06T10:14:59;3;1;
54553;PMS5003;40450;55.848;-3.572;2023-08-06T10:17:28;1;1;
54553;PMS5003;40450;55.848;-3.572;2023-08-06T10:19:58;0;0;
54553;PMS5003;40450;55.848;-3.572;2023-08-06T10:22:28;2;1;
54553;PMS5003;40450;55.848;-3.572;2023-08-06T10:25:00;3;1;
54553;PMS5003;40450;55.848;-3.572;2023-08-06T10:27:32;1;1;
54553;PMS5003;40450;55.848;-3.572;2023-08-06T10:35:01;4;3;
54553;PMS5003;40450;55.848;-3.572;2023-08-06T10:37:34;2;2;
54553;PMS5003;40450;55.848;-3.572;2023-08-06T10:40:01;1;1;
54553;PMS5003;40450;55.848;-3.572;2023-08-06T10:42:31;2;2;
54553;PMS5003;40450;55.848;-3.572;2023-08-06T10:47:37;1;1;
54553;PMS5003;40450;55.848;-3.572;2023-08-06T10:50:03;3;3;
54553;PMS5003;40450;55.848;-3.572;2023-08-06T10:52:33;2;2;
54553;PMS5003;40450;55.848;-3.572;2023-08-06T10:55:04;2;2;
54553;PMS5003;40450;55.848;-3.572;2023-08-06T10:57:34;2;2;
54553;PMS5003;40450;55.848;-3.572;2023-08-06T11:00:05;2;2;
54553;PMS5003;40450;55.848;-3.572;2023-08-06T11:02:35;1;1;
54553;PMS5003;40450;55.848;-3.572;2023-08-06T11:05:06;2;2;
54553;PMS5003;40450;55.848;-3.572;2023-08-06T11:07:36;2;2;
54553;PMS5003;40450;55.848;-3.572;2023-08-06T11:10:07;2;2;
54553;PMS5003;40450;55.848;-3.572;2023-08-06T11:12:38;1;1;
54553;PMS5003;40450;55.848;-3.572;2023-08-06T11:15:07;1;1;
54553;PMS5003;40450;55.848;-3.572;2023-08-06T11:17:37;4;2;
54553;PMS5003;40450;55.848;-3.572;2023-08-06T11:20:08;2;2;
54553;PMS5003;40450;55.848;-3.572;2023-08-06T11:22:38;0;0;
54553;PMS5003;40450;55.848;-3.572;2023-08-06T11:25:08;0;0;
54553;PMS5003;40450;55.848;-3.572;2023-08-06T11:27:39;2;2;
54553;PMS5003;40450;55.848;-3.572;2023-08-06T11:30:10;2;1;
54553;PMS5003;40450;55.848;-3.572;2023-08-06T11:32:44;2;2;
54553;PMS5003;40450;55.848;-3.572;2023-08-06T11:35:10;2;2;
54553;PMS5003;40450;55.848;-3.572;2023-08-06T11:37:43;3;3;
54553;PMS5003;40450;55.848;-3.572;2023-08-06T11:40:10;1;1;
54553;PMS5003;40450;55.848;-3.572;2023-08-06T11:42:40;2;1;
54553;PMS5003;40450;55.848;-3.572;2023-08-06T11:45:11;3;3;
54553;PMS5003;40450;55.848;-3.572;2023-08-06T11:47:41;2;2;
54553;PMS5003;40450;55.848;-3.572;2023-08-06T11:52:42;1;1;
54553;PMS5003;40450;55.848;-3.572;2023-08-06T11:55:12;3;1;
54553;PMS5003;40450;55.848;-3.572;2023-08-06T11:57:43;1;1;
54553;PMS5003;40450;55.848;-3.572;2023-08-06T12:00:13;1;1;
54553;PMS5003;40450;55.848;-3.572;2023-08-06T12:02:44;4;3;
54553;PMS5003;40450;55.848;-3.572;2023-08-06T12:05:14;0;0;
54553;PMS5003;40450;55.848;-3.572;2023-08-06T12:07:44;1;1;
54553;PMS5003;40450;55.848;-3.572;2023-08-06T12:10:14;1;1;
54553;PMS5003;40450;55.848;-3.572;2023-08-06T12:12:44;1;1;
54553;PMS5003;40450;55.848;-3.572;2023-08-06T12:15:15;2;2;
54553;PMS5003;40450;55.848;-3.572;2023-08-06T12:17:45;2;2;
54553;PMS5003;40450;55.848;-3.572;2023-08-06T12:20:15;1;1;
54553;PMS5003;40450;55.848;-3.572;2023-08-06T12:22:46;2;2;
54553;PMS5003;40450;55.848;-3.572;2023-08-06T12:25:16;2;2;
54553;PMS5003;40450;55.848;-3.572;2023-08-06T12:27:46;2;0;
54553;PMS5003;40450;55.848;-3.572;2023-08-06T12:30:16;2;2;
54553;PMS5003;40450;55.848;-3.572;2023-08-06T12:32:47;1;1;
54553;PMS5003;40450;55.848;-3.572;2023-08-06T12:35:17;1;1;
54553;PMS5003;40450;55.848;-3.572;2023-08-06T12:37:48;1;1;
54553;PMS5003;40450;55.848;-3.572;2023-08-06T12:40:18;3;2;
54553;PMS5003;40450;55.848;-3.572;2023-08-06T12:42:49;3;1;
54553;PMS5003;40450;55.848;-3.572;2023-08-06T12:45:19;1;1;
54553;PMS5003;40450;55.848;-3.572;2023-08-06T12:47:49;0;0;
54553;PMS5003;40450;55.848;-3.572;2023-08-06T12:50:19;2;2;
54553;PMS5003;40450;55.848;-3.572;2023-08-06T12:52:49;1;1;
54553;PMS5003;40450;55.848;-3.572;2023-08-06T12:55:20;2;2;
54553;PMS5003;40450;55.848;-3.572;2023-08-06T12:57:50;2;2;
54553;PMS5003;40450;55.848;-3.572;2023-08-06T13:00:20;2;2;
54553;PMS5003;40450;55.848;-3.572;2023-08-06T13:02:51;2;2;
54553;PMS5003;40450;55.848;-3.572;2023-08-06T13:05:21;1;1;
54553;PMS5003;40450;55.848;-3.572;2023-08-06T13:07:51;0;0;
54553;PMS5003;40450;55.848;-3.572;2023-08-06T13:10:22;1;0;
54553;PMS5003;40450;55.848;-3.572;2023-08-06T13:12:52;2;2;
54553;PMS5003;40450;55.848;-3.572;2023-08-06T13:15:22;3;3;
54553;PMS5003;40450;55.848;-3.572;2023-08-06T13:17:57;1;1;
54553;PMS5003;40450;55.848;-3.572;2023-08-06T13:20:23;1;0;
54553;PMS5003;40450;55.848;-3.572;2023-08-06T13:22:54;2;1;
54553;PMS5003;40450;55.848;-3.572;2023-08-06T13:25:24;3;3;
54553;PMS5003;40450;55.848;-3.572;2023-08-06T13:27:54;0;0;
54553;PMS5003;40450;55.848;-3.572;2023-08-06T13:30:25;1;1;
54553;PMS5003;40450;55.848;-3.572;2023-08-06T13:33:00;1;1;
54553;PMS5003;40450;55.848;-3.572;2023-08-06T13:35:25;2;1;
54553;PMS5003;40450;55.848;-3.572;2023-08-06T13:37:56;2;2;
54553;PMS5003;40450;55.848;-3.572;2023-08-06T13:40:26;2;2;
54553;PMS5003;40450;55.848;-3.572;2023-08-06T13:42:59;1;1;
54553;PMS5003;40450;55.848;-3.572;2023-08-06T13:45:27;2;2;
54553;PMS5003;40450;55.848;-3.572;2023-08-06T13:47:57;2;2;
54553;PMS5003;40450;55.848;-3.572;2023-08-06T13:50:27;1;1;
54553;PMS5003;40450;55.848;-3.572;2023-08-06T13:52:58;1;1;
54553;PMS5003;40450;55.848;-3.572;2023-08-06T13:55:28;1;1;
54553;PMS5003;40450;55.848;-3.572;2023-08-06T13:57:58;0;0;
54553;PMS5003;40450;55.848;-3.572;2023-08-06T14:00:29;1;1;
54553;PMS5003;40450;55.848;-3.572;2023-08-06T14:02:59;0;0;
54553;PMS5003;40450;55.848;-3.572;2023-08-06T14:05:29;0;0;
54553;PMS5003;40450;55.848;-3.572;2023-08-06T14:07:59;0;0;
54553;PMS5003;40450;55.848;-3.572;2023-08-06T14:10:30;0;0;
54553;PMS5003;40450;55.848;-3.572;2023-08-06T14:13:00;5;3;
54553;PMS5003;40450;55.848;-3.572;2023-08-06T14:15:30;2;0;
54553;PMS5003;40450;55.848;-3.572;2023-08-06T14:18:01;1;1;
54553;PMS5003;40450;55.848;-3.572;2023-08-06T14:20:31;0;0;
54553;PMS5003;40450;55.848;-3.572;2023-08-06T14:23:01;0;0;
54553;PMS5003;40450;55.848;-3.572;2023-08-06T14:25:32;0;0;
54553;PMS5003;40450;55.848;-3.572;2023-08-06T14:28:02;1;1;
54553;PMS5003;40450;55.848;-3.572;2023-08-06T14:30:32;3;1;
54553;PMS5003;40450;55.848;-3.572;2023-08-06T14:33:03;0;0;
54553;PMS5003;40450;55.848;-3.572;2023-08-06T14:35:33;2;0;
54553;PMS5003;40450;55.848;-3.572;2023-08-06T14:38:03;1;1;
54553;PMS5003;40450;55.848;-3.572;2023-08-06T14:40:34;1;1;
54553;PMS5003;40450;55.848;-3.572;2023-08-06T14:43:04;2;2;
54553;PMS5003;40450;55.848;-3.572;2023-08-06T14:45:37;0;0;
54553;PMS5003;40450;55.848;-3.572;2023-08-06T14:48:04;0;0;
54553;PMS5003;40450;55.848;-3.572;2023-08-06T14:50:35;2;2;
54553;PMS5003;40450;55.848;-3.572;2023-08-06T14:53:05;2;2;
54553;PMS5003;40450;55.848;-3.572;2023-08-06T14:55:35;1;1;
54553;PMS5003;40450;55.848;-3.572;2023-08-06T14:58:06;0;0;
54553;PMS5003;40450;55.848;-3.572;2023-08-06T15:00:36;1;1;
54553;PMS5003;40450;55.848;-3.572;2023-08-06T15:03:06;2;2;
54553;PMS5003;40450;55.848;-3.572;2023-08-06T15:05:37;3;3;
54553;PMS5003;40450;55.848;-3.572;2023-08-06T15:08:07;2;2;
54553;PMS5003;40450;55.848;-3.572;2023-08-06T15:10:37;0;0;
54553;PMS5003;40450;55.848;-3.572;2023-08-06T15:13:07;1;1;
54553;PMS5003;40450;55.848;-3.572;2023-08-06T15:15:38;1;1;
54553;PMS5003;40450;55.848;-3.572;2023-08-06T15:18:09;13;9;
54553;PMS5003;40450;55.848;-3.572;2023-08-06T15:20:39;1;1;
54553;PMS5003;40450;55.848;-3.572;2023-08-06T15:23:09;3;2;
54553;PMS5003;40450;55.848;-3.572;2023-08-06T15:25:40;4;3;
54553;PMS5003;40450;55.848;-3.572;2023-08-06T15:28:10;4;3;
54553;PMS5003;40450;55.848;-3.572;2023-08-06T15:30:40;4;4;
54553;PMS5003;40450;55.848;-3.572;2023-08-06T15:33:11;3;3;
54553;PMS5003;40450;55.848;-3.572;2023-08-06T15:35:41;21;17;
54553;PMS5003;40450;55.848;-3.572;2023-08-06T15:38:12;7;5;
54553;PMS5003;40450;55.848;-3.572;2023-08-06T15:40:42;2;2;
54553;PMS5003;40450;55.848;-3.572;2023-08-06T15:43:13;3;2;
54553;PMS5003;40450;55.848;-3.572;2023-08-06T15:45:43;3;1;
54553;PMS5003;40450;55.848;-3.572;2023-08-06T15:48:13;2;2;
54553;PMS5003;40450;55.848;-3.572;2023-08-06T15:50:43;2;1;
54553;PMS5003;40450;55.848;-3.572;2023-08-06T15:53:13;1;1;
54553;PMS5003;40450;55.848;-3.572;2023-08-06T15:55:45;0;0;
54553;PMS5003;40450;55.848;-3.572;2023-08-06T15:58:14;2;0;
54553;PMS5003;40450;55.848;-3.572;2023-08-06T16:00:44;4;4;
54553;PMS5003;40450;55.848;-3.572;2023-08-06T16:03:15;3;3;
54553;PMS5003;40450;55.848;-3.572;2023-08-06T16:05:45;2;2;
54553;PMS5003;40450;55.848;-3.572;2023-08-06T16:08:15;2;1;
54553;PMS5003;40450;55.848;-3.572;2023-08-06T16:10:46;1;1;
54553;PMS5003;40450;55.848;-3.572;2023-08-06T16:13:16;1;1;
54553;PMS5003;40450;55.848;-3.572;2023-08-06T16:15:46;3;1;
54553;PMS5003;40450;55.848;-3.572;2023-08-06T16:18:17;0;0;
54553;PMS5003;40450;55.848;-3.572;2023-08-06T16:20:47;2;2;
54553;PMS5003;40450;55.848;-3.572;2023-08-06T16:23:17;0;0;
54553;PMS5003;40450;55.848;-3.572;2023-08-06T16:25:47;2;1;
54553;PMS5003;40450;55.848;-3.572;2023-08-06T16:28:18;0;0;
54553;PMS5003;40450;55.848;-3.572;2023-08-06T16:30:48;0;0;
54553;PMS5003;40450;55.848;-3.572;2023-08-06T16:33:18;0;0;
54553;PMS5003;40450;55.848;-3.572;2023-08-06T16:35:49;0;0;
54553;PMS5003;40450;55.848;-3.572;2023-08-06T16:38:19;2;0;
54553;PMS5003;40450;55.848;-3.572;2023-08-06T16:40:52;1;1;
54553;PMS5003;40450;55.848;-3.572;2023-08-06T16:43:21;1;1;
54553;PMS5003;40450;55.848;-3.572;2023-08-06T16:45:51;0;0;
54553;PMS5003;40450;55.848;-3.572;2023-08-06T16:48:20;0;0;
54553;PMS5003;40450;55.848;-3.572;2023-08-06T16:50:50;2;0;
54553;PMS5003;40450;55.848;-3.572;2023-08-06T16:53:21;0;0;
54553;PMS5003;40450;55.848;-3.572;2023-08-06T16:55:51;1;1;
54553;PMS5003;40450;55.848;-3.572;2023-08-06T16:58:21;1;1;
54553;PMS5003;40450;55.848;-3.572;2023-08-06T17:00:51;0;0;
54553;PMS5003;40450;55.848;-3.572;2023-08-06T17:03:22;1;1;
54553;PMS5003;40450;55.848;-3.572;2023-08-06T17:05:52;1;1;
54553;PMS5003;40450;55.848;-3.572;2023-08-06T17:08:22;0;0;
54553;PMS5003;40450;55.848;-3.572;2023-08-06T17:10:54;0;0;